createdAt,value
2019-01-20T00:00:04.239Z,10.70
2019-01-20T00:02:33.270Z,11.63
2019-01-20T00:05:02.394Z,9.60
2019-01-20T00:07:31.293Z,11.83
2019-01-20T00:10:00.251Z,11.70
2019-01-20T00:12:29.347Z,8.83
2019-01-20T00:14:58.217Z,11.77
2019-01-20T00:17:27.277Z,11.17
2019-01-20T00:19:56.156Z,8.03
2019-01-20T00:22:25.244Z,10.10
2019-01-20T00:24:54.208Z,8.27
2019-01-20T00:27:23.069Z,10.47
2019-01-20T00:29:51.948Z,10.07
2019-01-20T00:32:21.055Z,11.10
2019-01-20T00:34:49.905Z,7.80
2019-01-20T00:37:18.944Z,7.80
2019-01-20T00:39:47.897Z,7.90
2019-01-20T00:42:17.030Z,9.27
2019-01-20T00:44:46.027Z,9.17
2019-01-20T00:47:14.879Z,10.37
2019-01-20T00:49:44.243Z,10.63
2019-01-20T00:52:13.162Z,12.73
2019-01-20T00:54:42.137Z,9.93
2019-01-20T00:57:11.138Z,10.20
2019-01-20T00:59:40.186Z,8.70
2019-01-20T01:02:09.192Z,10.27
2019-01-20T01:04:38.128Z,9.13
2019-01-20T01:07:07.378Z,9.47
2019-01-20T01:09:36.302Z,9.83
2019-01-20T01:12:06.581Z,9.13
2019-01-20T01:14:35.534Z,11.60
2019-01-20T01:17:04.645Z,9.30
2019-01-20T01:19:33.702Z,9.13
2019-01-20T01:22:02.554Z,10.60
2019-01-20T01:24:31.442Z,10.27
2019-01-20T01:27:00.353Z,9.00
2019-01-20T01:29:29.226Z,10.53
2019-01-20T01:31:58.196Z,8.70
2019-01-20T01:34:27.295Z,9.47
2019-01-20T01:36:56.209Z,9.93
2019-01-20T01:39:25.111Z,9.93
2019-01-20T01:41:54.172Z,9.17
2019-01-20T01:44:23.093Z,10.03
2019-01-20T01:46:52.047Z,7.80
2019-01-20T01:49:20.926Z,14.20
2019-01-20T01:51:49.857Z,6.93
2019-01-20T01:54:18.736Z,8.10
2019-01-20T01:56:47.627Z,9.40
2019-01-20T01:59:17.147Z,8.03
2019-01-20T02:01:46.219Z,11.60
2019-01-20T02:04:15.074Z,11.28
2019-01-20T02:06:43.991Z,9.10
2019-01-20T02:09:12.846Z,10.70
2019-01-20T02:11:46.855Z,8.53
2019-01-20T02:14:12.526Z,9.13
2019-01-20T02:16:41.527Z,8.30
2019-01-20T02:19:22.881Z,8.83
2019-01-20T02:21:52.009Z,7.53
2019-01-20T02:24:20.897Z,7.97
2019-01-20T02:26:49.972Z,8.70
2019-01-20T02:29:18.831Z,9.18
2019-01-20T02:31:47.688Z,6.57
2019-01-20T02:34:16.665Z,6.93
2019-01-20T02:36:45.821Z,7.85
2019-01-20T02:39:14.706Z,11.10
2019-01-20T02:41:43.565Z,8.80
2019-01-20T02:44:12.506Z,9.43
2019-01-20T02:46:41.695Z,8.40
2019-01-20T02:49:10.663Z,7.03
2019-01-20T02:51:39.581Z,9.93
2019-01-20T02:54:08.474Z,10.08
2019-01-20T02:56:37.494Z,10.10
2019-01-20T02:59:06.345Z,7.07
2019-01-20T03:01:35.455Z,10.93
2019-01-20T03:04:04.845Z,9.10
2019-01-20T03:06:33.950Z,10.30
2019-01-20T03:09:04.680Z,7.10
2019-01-20T03:11:33.609Z,9.43
2019-01-20T03:14:02.539Z,9.13
2019-01-20T03:16:31.450Z,10.40
2019-01-20T03:19:00.846Z,8.90
2019-01-20T03:21:29.862Z,7.65
2019-01-20T03:23:58.904Z,9.23
2019-01-20T03:26:27.941Z,9.60
2019-01-20T03:28:56.940Z,8.35
2019-01-20T03:31:25.800Z,10.98
2019-01-20T03:33:54.627Z,10.38
2019-01-20T03:36:23.507Z,6.87
2019-01-20T03:38:52.408Z,12.33
2019-01-20T03:41:21.457Z,8.38
2019-01-20T03:43:50.454Z,7.37
2019-01-20T03:46:19.437Z,7.72
2019-01-20T03:48:48.387Z,6.47
2019-01-20T03:51:17.319Z,7.92
2019-01-20T03:53:46.158Z,6.50
2019-01-20T03:56:14.994Z,9.18
2019-01-20T03:58:44.212Z,5.80
2019-01-20T04:01:13.186Z,8.65
2019-01-20T04:03:42.107Z,9.50
2019-01-20T04:06:11.064Z,8.17
2019-01-20T04:08:40.268Z,7.30
2019-01-20T04:11:09.288Z,9.05
2019-01-20T04:13:38.407Z,9.00
2019-01-20T04:16:07.443Z,11.68
2019-01-20T04:18:36.352Z,9.30
2019-01-20T04:21:05.355Z,8.63
2019-01-20T04:23:34.222Z,8.88
2019-01-20T04:26:03.180Z,9.05
2019-01-20T04:28:32.046Z,10.88
2019-01-20T04:31:01.065Z,10.48
2019-01-20T04:33:29.911Z,8.63
2019-01-20T04:35:58.875Z,9.00
2019-01-20T04:38:27.795Z,8.45
2019-01-20T04:40:56.793Z,7.37
2019-01-20T04:43:25.687Z,9.13
2019-01-20T04:45:54.564Z,10.60
2019-01-20T04:48:23.499Z,9.70
2019-01-20T04:50:52.459Z,8.65
2019-01-20T04:53:21.430Z,9.83
2019-01-20T04:55:50.272Z,10.38
2019-01-20T04:58:19.426Z,11.33
2019-01-20T05:00:48.268Z,11.08
2019-01-20T05:03:17.123Z,9.50
2019-01-20T05:05:46.070Z,8.35
2019-01-20T05:08:15.131Z,12.73
2019-01-20T05:10:44.029Z,11.38
2019-01-20T05:13:12.886Z,7.30
2019-01-20T05:15:41.856Z,8.28
2019-01-20T05:18:10.691Z,7.83
2019-01-20T05:20:39.550Z,10.50
2019-01-20T05:23:08.490Z,8.25
2019-01-20T05:25:37.428Z,9.50
2019-01-20T05:28:06.341Z,12.23
2019-01-20T05:30:35.616Z,7.67
2019-01-20T05:33:04.725Z,10.35
2019-01-20T05:35:33.632Z,9.20
2019-01-20T05:38:02.572Z,10.40
2019-01-20T05:40:31.610Z,9.78
2019-01-20T05:43:00.478Z,10.53
2019-01-20T05:45:29.400Z,11.53
2019-01-20T05:47:58.262Z,10.32
2019-01-20T05:50:27.134Z,9.38
2019-01-20T05:52:56.096Z,9.95
2019-01-20T05:55:25.039Z,8.98
2019-01-20T05:57:53.952Z,10.63
2019-01-20T06:00:27.879Z,11.03
2019-01-20T06:02:56.731Z,10.45
2019-01-20T06:05:25.662Z,12.53
2019-01-20T06:07:54.586Z,11.18
2019-01-20T06:10:23.461Z,10.32
2019-01-20T06:12:54.260Z,10.70
2019-01-20T06:15:24.014Z,8.45
2019-01-20T06:17:52.965Z,9.88
2019-01-20T06:20:22.373Z,10.58
2019-01-20T06:22:51.487Z,11.68
2019-01-20T06:25:20.477Z,9.63
2019-01-20T06:27:49.422Z,7.72
2019-01-20T06:30:24.298Z,10.85
2019-01-20T06:32:55.822Z,10.28
2019-01-20T06:35:24.744Z,10.35
2019-01-20T06:37:53.731Z,9.18
2019-01-20T06:40:22.733Z,10.58
2019-01-20T06:42:51.950Z,9.73
2019-01-20T06:45:20.883Z,9.30
2019-01-20T06:47:49.886Z,8.73
2019-01-20T06:50:20.023Z,8.15
2019-01-20T06:52:48.987Z,8.98
2019-01-20T06:55:17.996Z,12.75
2019-01-20T06:57:46.951Z,8.98
2019-01-20T07:00:23.872Z,11.80
2019-01-20T07:02:52.871Z,8.63
2019-01-20T07:05:22.179Z,8.38
2019-01-20T07:07:51.557Z,8.95
2019-01-20T07:10:20.815Z,9.88
2019-01-20T07:12:49.739Z,8.45
2019-01-20T07:15:20.732Z,9.20
2019-01-20T07:17:49.731Z,9.98
2019-01-20T07:20:18.751Z,8.30
2019-01-20T07:22:47.760Z,11.25
2019-01-20T07:25:16.900Z,10.63
2019-01-20T07:27:46.032Z,9.83
2019-01-20T07:30:17.251Z,9.05
2019-01-20T07:32:46.270Z,9.18
2019-01-20T07:35:15.316Z,9.53
2019-01-20T07:37:44.652Z,15.08
2019-01-20T07:40:15.879Z,11.33
2019-01-20T07:42:45.127Z,8.30
2019-01-20T07:45:15.037Z,11.15
2019-01-20T07:47:44.694Z,10.50
2019-01-20T07:50:19.435Z,11.53
2019-01-20T07:52:48.694Z,11.28
2019-01-20T07:55:18.012Z,9.35
2019-01-20T07:57:47.234Z,10.72
2019-01-20T08:00:18.298Z,12.13
2019-01-20T08:02:47.249Z,9.20
2019-01-20T08:05:16.937Z,9.35
2019-01-20T08:07:46.027Z,8.53
2019-01-20T08:10:20.069Z,11.12
2019-01-20T08:12:49.074Z,9.95
2019-01-20T08:15:18.707Z,8.60
2019-01-20T08:17:47.526Z,8.80
2019-01-20T08:20:18.572Z,10.48
2019-01-20T08:22:47.558Z,8.08
2019-01-20T08:25:17.162Z,9.53
2019-01-20T08:27:46.141Z,8.73
2019-01-20T08:30:17.296Z,9.30
2019-01-20T08:32:46.325Z,8.55
2019-01-20T08:35:15.306Z,9.35
2019-01-20T08:37:44.241Z,9.40
2019-01-20T08:40:21.571Z,9.75
2019-01-20T08:42:50.568Z,9.30
2019-01-20T08:45:27.451Z,11.60
2019-01-20T08:48:00.790Z,12.00
2019-01-20T08:50:29.887Z,9.03
2019-01-20T08:52:58.742Z,10.55
2019-01-20T08:55:27.726Z,8.63
2019-01-20T08:57:56.650Z,10.70
2019-01-20T09:00:26.459Z,9.88
2019-01-20T09:02:55.379Z,9.33
2019-01-20T09:05:24.312Z,9.00
2019-01-20T09:07:53.154Z,7.03
2019-01-20T09:10:27.558Z,8.73
2019-01-20T09:13:00.609Z,9.23
2019-01-20T09:15:29.671Z,9.40
2019-01-20T09:17:58.604Z,8.40
2019-01-20T09:20:27.544Z,9.33
2019-01-20T09:22:56.430Z,7.78
2019-01-20T09:25:25.439Z,7.78
2019-01-20T09:27:54.418Z,8.08
2019-01-20T09:30:23.340Z,8.85
2019-01-20T09:32:52.316Z,10.90
2019-01-20T09:35:21.703Z,8.30
2019-01-20T09:37:50.954Z,9.35
2019-01-20T09:40:19.898Z,14.20
2019-01-20T09:42:48.834Z,10.18
2019-01-20T09:45:28.139Z,8.03
2019-01-20T09:47:57.476Z,9.08
2019-01-20T09:50:26.586Z,7.95
2019-01-20T09:52:55.609Z,9.75
2019-01-20T09:55:24.637Z,10.00
2019-01-20T09:57:53.583Z,8.75
2019-01-20T10:00:24.449Z,8.40
2019-01-20T10:02:53.647Z,8.45
2019-01-20T10:05:22.659Z,8.38
2019-01-20T10:07:51.811Z,6.00
2019-01-20T10:10:20.818Z,8.80
2019-01-20T10:12:49.819Z,11.60
2019-01-20T10:15:18.811Z,7.00
2019-01-20T10:17:47.762Z,8.83
2019-01-20T10:20:25.173Z,8.93
2019-01-20T10:22:54.281Z,8.63
2019-01-20T10:25:23.260Z,8.08
2019-01-20T10:27:52.192Z,8.00
2019-01-20T10:30:35.072Z,8.95
2019-01-20T10:33:04.212Z,8.15
2019-01-20T10:35:43.557Z,8.83
2019-01-20T10:38:14.928Z,7.83
2019-01-20T10:40:43.956Z,8.00
2019-01-20T10:43:12.955Z,11.50
2019-01-20T10:45:41.843Z,8.03
2019-01-20T10:48:10.927Z,7.50
2019-01-20T10:50:39.931Z,8.90
2019-01-20T10:53:09.079Z,7.63
2019-01-20T10:55:37.994Z,8.20
2019-01-20T10:58:07.031Z,9.90
2019-01-20T11:00:38.270Z,7.43
2019-01-20T11:03:07.553Z,7.40
2019-01-20T11:05:36.686Z,10.27
2019-01-20T11:08:05.826Z,8.83
2019-01-20T11:10:35.171Z,7.53
2019-01-20T11:13:04.461Z,9.23
2019-01-20T11:15:33.547Z,9.50
2019-01-20T11:18:21.738Z,8.00
2019-01-20T11:20:51.040Z,8.03
2019-01-20T11:23:21.625Z,8.90
2019-01-20T11:25:50.535Z,8.07
2019-01-20T11:28:19.522Z,9.53
2019-01-20T11:31:07.763Z,6.80
2019-01-20T11:33:36.619Z,7.27
2019-01-20T11:36:05.542Z,10.13
2019-01-20T11:38:34.396Z,7.70
2019-01-20T11:41:03.210Z,7.83
2019-01-20T11:43:32.186Z,12.00
2019-01-20T11:46:01.170Z,8.93
2019-01-20T11:48:30.024Z,8.03
2019-01-20T11:50:58.898Z,7.00
2019-01-20T11:53:27.755Z,10.40
2019-01-20T11:55:56.729Z,8.60
2019-01-20T11:58:25.630Z,7.87
2019-01-20T12:00:54.560Z,8.63
2019-01-20T12:03:23.398Z,7.87
2019-01-20T12:05:52.346Z,8.80
2019-01-20T12:08:21.398Z,7.37
2019-01-20T12:10:50.299Z,8.40
2019-01-20T12:13:27.342Z,10.50
2019-01-20T12:15:56.295Z,11.27
2019-01-20T12:18:25.590Z,8.10
2019-01-20T12:20:54.696Z,7.90
2019-01-20T12:23:23.748Z,9.70
2019-01-20T12:25:52.719Z,7.07
2019-01-20T12:28:21.673Z,7.33
2019-01-20T12:30:50.704Z,8.43
2019-01-20T12:33:19.618Z,11.50
2019-01-20T12:35:48.786Z,8.63
2019-01-20T12:38:17.806Z,9.13
2019-01-20T12:40:48.085Z,7.47
2019-01-20T12:43:16.957Z,9.87
2019-01-20T12:45:45.914Z,9.13
2019-01-20T12:48:15.043Z,10.03
2019-01-20T12:50:44.124Z,8.97
2019-01-20T12:53:13.214Z,9.10
2019-01-20T12:55:42.437Z,7.77
2019-01-20T12:58:11.458Z,7.90
2019-01-20T13:00:40.423Z,7.33
2019-01-20T13:03:09.270Z,9.70
2019-01-20T13:05:38.472Z,7.80
2019-01-20T13:08:07.499Z,7.77
2019-01-20T13:10:38.100Z,9.77
2019-01-20T13:13:07.039Z,8.43
2019-01-20T13:15:36.013Z,8.23
2019-01-20T13:18:05.190Z,8.37
2019-01-20T13:20:34.117Z,8.57
2019-01-20T13:23:03.031Z,9.50
2019-01-20T13:25:32.022Z,7.73
2019-01-20T13:28:01.308Z,8.00
2019-01-20T13:30:30.437Z,8.27
2019-01-20T13:32:59.479Z,6.80
2019-01-20T13:35:29.410Z,7.90
2019-01-20T13:38:04.690Z,8.00
2019-01-20T13:40:39.686Z,7.57
2019-01-20T13:43:08.722Z,7.80
2019-01-20T13:45:37.702Z,9.10
2019-01-20T13:48:06.895Z,6.20
2019-01-20T13:50:35.878Z,6.00
2019-01-20T13:53:05.719Z,8.77
2019-01-20T13:55:34.637Z,7.40
2019-01-20T13:58:03.665Z,8.97
2019-01-20T14:00:32.560Z,7.13
2019-01-20T14:03:01.474Z,7.17
2019-01-20T14:05:30.464Z,7.13
2019-01-20T14:07:59.447Z,7.63
2019-01-20T14:10:28.421Z,9.33
2019-01-20T14:13:00.295Z,7.73
2019-01-20T14:15:29.105Z,7.30
2019-01-20T14:17:57.989Z,6.10
2019-01-20T14:20:27.393Z,6.37
2019-01-20T14:22:56.372Z,6.97
2019-01-20T14:25:25.803Z,7.23
2019-01-20T14:27:54.767Z,7.17
2019-01-20T14:30:25.764Z,7.27
2019-01-20T14:32:54.699Z,7.90
2019-01-20T14:35:23.639Z,7.20
2019-01-20T14:37:52.636Z,7.53
2019-01-20T14:40:22.365Z,7.30
2019-01-20T14:42:51.434Z,7.50
2019-01-20T14:45:20.714Z,6.70
2019-01-20T14:47:49.638Z,7.00
2019-01-20T14:50:21.361Z,8.10
2019-01-20T14:52:50.359Z,6.07
2019-01-20T14:55:19.491Z,7.27
2019-01-20T14:57:48.350Z,7.40
2019-01-20T15:00:34.245Z,8.83
2019-01-20T15:03:03.337Z,7.03
2019-01-20T15:05:32.446Z,6.87
2019-01-20T15:08:01.662Z,7.27
2019-01-20T15:10:30.758Z,8.40
2019-01-20T15:12:59.809Z,9.20
2019-01-20T15:15:32.288Z,6.53
2019-01-20T15:18:01.275Z,6.37
2019-01-20T15:20:30.294Z,9.17
2019-01-20T15:22:59.395Z,9.17
2019-01-20T15:25:28.435Z,7.40
2019-01-20T15:27:57.520Z,8.00
2019-01-20T15:30:28.729Z,6.80
2019-01-20T15:32:59.486Z,7.07
2019-01-20T15:35:28.538Z,6.00
2019-01-20T15:37:57.524Z,8.23
2019-01-20T15:40:26.957Z,7.73
2019-01-20T15:42:55.879Z,7.20
2019-01-20T15:45:25.284Z,13.13
2019-01-20T15:47:54.447Z,7.70
2019-01-20T15:50:28.764Z,7.00
2019-01-20T15:52:57.840Z,7.03
2019-01-20T15:55:26.802Z,6.30
2019-01-20T15:57:56.107Z,8.40
2019-01-20T16:00:26.907Z,6.80
2019-01-20T16:02:55.861Z,8.80
2019-01-20T16:05:25.973Z,6.23
2019-01-20T16:07:54.998Z,7.10
2019-01-20T16:10:25.382Z,5.47
2019-01-20T16:12:54.760Z,7.43
2019-01-20T16:15:29.747Z,7.80
2019-01-20T16:17:58.895Z,7.67
2019-01-20T16:20:30.685Z,7.73
2019-01-20T16:23:00.061Z,7.47
2019-01-20T16:25:30.983Z,6.40
2019-01-20T16:28:00.063Z,8.10
2019-01-20T16:30:31.452Z,7.63
2019-01-20T16:33:00.379Z,9.03
2019-01-20T16:35:29.423Z,7.43
2019-01-20T16:37:59.309Z,8.77
2019-01-20T16:40:28.405Z,8.93
2019-01-20T16:42:57.337Z,10.93
2019-01-20T16:45:32.815Z,8.40
2019-01-20T16:48:00.293Z,8.03
2019-01-20T16:50:29.256Z,7.90
2019-01-20T16:52:58.244Z,8.60
2019-01-20T16:55:28.340Z,6.67
2019-01-20T16:57:57.325Z,8.20
2019-01-20T17:00:28.507Z,8.07
2019-01-20T17:02:57.611Z,8.23
2019-01-20T17:05:27.214Z,8.00
2019-01-20T17:07:56.580Z,7.83
2019-01-20T17:10:28.114Z,7.63
2019-01-20T17:12:57.155Z,6.43
2019-01-20T17:15:28.617Z,7.90
2019-01-20T17:17:57.567Z,8.00
2019-01-20T17:20:26.876Z,6.37
2019-01-20T17:22:55.883Z,6.93
2019-01-20T17:25:24.854Z,9.20
2019-01-20T17:27:53.688Z,7.57
2019-01-20T17:30:25.317Z,9.00
2019-01-20T17:32:54.914Z,8.83
2019-01-20T17:35:23.945Z,7.03
2019-01-20T17:37:53.243Z,9.00
2019-01-20T17:40:24.004Z,8.47
2019-01-20T17:42:53.092Z,8.37
2019-01-20T17:45:24.287Z,9.60
2019-01-20T17:47:53.455Z,9.83
2019-01-20T17:50:25.149Z,8.97
2019-01-20T17:52:54.503Z,7.80
2019-01-20T17:55:23.748Z,8.30
2019-01-20T17:57:52.795Z,8.80
2019-01-20T18:00:25.898Z,10.47
2019-01-20T18:02:55.023Z,9.17
2019-01-20T18:05:25.230Z,8.33
2019-01-20T18:07:54.271Z,8.90
2019-01-20T18:10:23.282Z,9.60
2019-01-20T18:12:53.350Z,11.23
2019-01-20T18:15:22.612Z,9.53
2019-01-20T18:17:51.550Z,10.63
2019-01-20T18:20:22.613Z,12.00
2019-01-20T18:22:51.927Z,11.73
2019-01-20T18:25:21.095Z,11.60
2019-01-20T18:27:50.258Z,13.40
2019-01-20T18:30:21.502Z,8.50
2019-01-20T18:32:50.526Z,9.20
2019-01-20T18:35:19.798Z,14.60
2019-01-20T18:37:48.983Z,11.10
2019-01-20T18:40:19.214Z,9.97
2019-01-20T18:42:48.139Z,11.03
2019-01-20T18:45:22.347Z,9.43
2019-01-20T18:47:51.373Z,11.57
2019-01-20T18:50:22.778Z,12.10
2019-01-20T18:52:52.030Z,15.20
2019-01-20T18:55:21.048Z,10.30
2019-01-20T18:57:49.971Z,10.83
2019-01-20T19:00:24.150Z,10.67
2019-01-20T19:02:53.133Z,10.13
2019-01-20T19:05:22.248Z,13.47
2019-01-20T19:07:55.371Z,8.43
2019-01-20T19:10:21.989Z,10.20
2019-01-20T19:12:51.234Z,9.27
2019-01-20T19:15:20.562Z,11.73
2019-01-20T19:17:49.921Z,11.57
2019-01-20T19:20:20.556Z,10.90
2019-01-20T19:22:50.769Z,10.60
2019-01-20T19:25:20.057Z,11.23
2019-01-20T19:27:48.951Z,10.50
2019-01-20T19:30:20.771Z,10.90
2019-01-20T19:32:49.667Z,12.30
2019-01-20T19:35:18.945Z,14.00
2019-01-20T19:37:48.077Z,11.07
2019-01-20T19:40:17.460Z,13.57
2019-01-20T19:42:46.379Z,13.13
2019-01-20T19:45:16.898Z,10.00
2019-01-20T19:47:45.868Z,14.87
2019-01-20T19:50:15.187Z,11.60
2019-01-20T19:52:44.187Z,12.77
2019-01-20T19:55:15.885Z,10.17
2019-01-20T19:57:44.811Z,12.70
2019-01-20T20:00:16.606Z,10.40
2019-01-20T20:02:45.549Z,10.23
2019-01-20T20:05:16.165Z,11.00
2019-01-20T20:07:45.244Z,13.30
2019-01-20T20:10:15.952Z,13.03
2019-01-20T20:12:44.942Z,10.80
2019-01-20T20:15:16.744Z,12.60
2019-01-20T20:17:45.750Z,12.93
2019-01-20T20:20:15.782Z,12.00
2019-01-20T20:22:44.827Z,12.23
2019-01-20T20:25:14.635Z,12.70
2019-01-20T20:27:43.670Z,16.73
2019-01-20T20:30:18.276Z,11.37
2019-01-20T20:32:47.273Z,12.93
2019-01-20T20:35:16.316Z,13.77
2019-01-20T20:37:45.387Z,13.20
2019-01-20T20:40:15.812Z,11.40
2019-01-20T20:42:44.773Z,10.87
2019-01-20T20:45:16.395Z,12.97
2019-01-20T20:47:45.453Z,12.67
2019-01-20T20:50:16.074Z,12.93
2019-01-20T20:52:46.071Z,13.30
2019-01-20T20:55:15.525Z,11.00
2019-01-20T20:57:44.795Z,14.63
2019-01-20T21:00:25.845Z,14.10
2019-01-20T21:02:54.682Z,11.97
2019-01-20T21:05:23.712Z,16.07
2019-01-20T21:07:52.728Z,13.80
2019-01-20T21:10:22.004Z,17.70
2019-01-20T21:12:51.033Z,17.67
2019-01-20T21:15:19.952Z,13.77
2019-01-20T21:17:48.971Z,14.10
2019-01-20T21:20:19.692Z,14.33
2019-01-20T21:22:48.792Z,16.53
2019-01-20T21:25:17.859Z,17.83
2019-01-20T21:27:46.995Z,17.07
2019-01-20T21:30:21.123Z,17.70
2019-01-20T21:32:50.218Z,15.97
2019-01-20T21:35:19.950Z,11.83
2019-01-20T21:37:48.989Z,19.50
2019-01-20T21:40:18.951Z,16.60
2019-01-20T21:42:48.115Z,14.17
2019-01-20T21:45:17.586Z,14.50
2019-01-20T21:47:46.914Z,17.97
2019-01-20T21:50:21.180Z,16.17
2019-01-20T21:52:50.279Z,16.23
2019-01-20T21:55:19.237Z,17.80
2019-01-20T21:57:48.274Z,16.87
2019-01-20T22:00:19.678Z,16.37
2019-01-20T22:02:48.735Z,15.13
2019-01-20T22:05:17.847Z,18.67
2019-01-20T22:07:47.186Z,17.63
2019-01-20T22:10:18.522Z,16.10
2019-01-20T22:12:47.758Z,17.33
2019-01-20T22:15:16.942Z,18.33
2019-01-20T22:17:46.545Z,20.23
2019-01-20T22:20:17.492Z,21.10
2019-01-20T22:22:46.603Z,17.90
2019-01-20T22:25:15.798Z,20.70
2019-01-20T22:27:45.054Z,21.30
2019-01-20T22:30:16.571Z,23.70
2019-01-20T22:32:45.668Z,20.30
2019-01-20T22:35:14.677Z,23.03
2019-01-20T22:37:43.808Z,22.10
2019-01-20T22:40:13.736Z,19.83
2019-01-20T22:42:42.870Z,25.27
2019-01-20T22:45:14.491Z,24.33
2019-01-20T22:47:43.552Z,23.57
2019-01-20T22:50:13.009Z,20.13
2019-01-20T22:52:42.070Z,23.00
2019-01-20T22:55:12.671Z,22.60
2019-01-20T22:57:44.174Z,19.30
2019-01-20T23:00:21.026Z,21.87
2019-01-20T23:02:50.025Z,19.50
2019-01-20T23:05:19.039Z,23.07
2019-01-20T23:07:48.135Z,24.20
2019-01-20T23:10:17.275Z,24.05
2019-01-20T23:12:46.226Z,21.63
2019-01-20T23:15:15.338Z,21.55
2019-01-20T23:17:44.384Z,25.50
2019-01-20T23:20:14.888Z,21.97
2019-01-20T23:22:43.899Z,21.90
2019-01-20T23:25:13.131Z,24.07
2019-01-20T23:27:42.356Z,22.27
2019-01-20T23:30:12.406Z,22.42
2019-01-20T23:32:41.338Z,24.73
2019-01-20T23:35:10.631Z,23.13
2019-01-20T23:37:39.628Z,18.92
2019-01-20T23:40:09.526Z,22.80
2019-01-20T23:42:38.534Z,23.40
2019-01-20T23:45:08.839Z,20.57
2019-01-20T23:47:37.686Z,18.32
2019-01-20T23:50:08.471Z,20.97
2019-01-20T23:52:37.500Z,24.12
2019-01-20T23:55:07.193Z,21.30
2019-01-20T23:57:36.141Z,24.00
